sensor_id;sensor_type;location;lat;lon;timestamp;P1;durP1;ratioP1;P2;durP2;ratioP2
22780;SDS011;11557;50.884;4.322;2023-10-19T00:00:56;3.13;;;0.80;;
22780;SDS011;11557;50.884;4.322;2023-10-19T00:03:25;3.30;;;0.57;;
22780;SDS011;11557;50.884;4.322;2023-10-19T00:05:51;3.25;;;0.90;;
22780;SDS011;11557;50.884;4.322;2023-10-19T00:08:20;3.22;;;0.60;;
22780;SDS011;11557;50.884;4.322;2023-10-19T00:10:53;2.53;;;0.38;;
22780;SDS011;11557;50.884;4.322;2023-10-19T00:13:33;3.72;;;0.60;;
22780;SDS011;11557;50.884;4.322;2023-10-19T00:16:06;1.65;;;0.30;;
22780;SDS011;11557;50.884;4.322;2023-10-19T00:18:45;5.63;;;0.50;;
22780;SDS011;11557;50.884;4.322;2023-10-19T00:21:14;2.15;;;0.43;;
22780;SDS011;11557;50.884;4.322;2023-10-19T00:23:50;4.18;;;0.70;;
22780;SDS011;11557;50.884;4.322;2023-10-19T00:26:23;2.65;;;0.50;;
22780;SDS011;11557;50.884;4.322;2023-10-19T00:28:54;4.68;;;1.25;;
22780;SDS011;11557;50.884;4.322;2023-10-19T00:31:23;1.95;;;0.55;;
22780;SDS011;11557;50.884;4.322;2023-10-19T00:33:50;3.15;;;0.50;;
22780;SDS011;11557;50.884;4.322;2023-10-19T00:36:22;4.30;;;0.60;;
22780;SDS011;11557;50.884;4.322;2023-10-19T00:38:48;2.50;;;0.73;;
22780;SDS011;11557;50.884;4.322;2023-10-19T00:41:15;0.93;;;0.47;;
22780;SDS011;11557;50.884;4.322;2023-10-19T00:43:47;2.58;;;0.50;;
22780;SDS011;11557;50.884;4.322;2023-10-19T00:46:22;3.05;;;0.50;;
22780;SDS011;11557;50.884;4.322;2023-10-19T00:48:52;4.80;;;0.43;;
22780;SDS011;11557;50.884;4.322;2023-10-19T00:51:21;2.72;;;0.63;;
22780;SDS011;11557;50.884;4.322;2023-10-19T00:53:56;3.40;;;0.60;;
22780;SDS011;11557;50.884;4.322;2023-10-19T00:56:40;4.68;;;1.25;;
22780;SDS011;11557;50.884;4.322;2023-10-19T00:59:18;1.77;;;0.32;;
22780;SDS011;11557;50.884;4.322;2023-10-19T01:01:48;3.03;;;0.50;;
22780;SDS011;11557;50.884;4.322;2023-10-19T01:04:37;6.40;;;1.00;;
22780;SDS011;11557;50.884;4.322;2023-10-19T01:07:07;5.60;;;0.80;;
22780;SDS011;11557;50.884;4.322;2023-10-19T01:12:25;4.05;;;0.98;;
22780;SDS011;11557;50.884;4.322;2023-10-19T01:15:14;2.75;;;0.75;;
22780;SDS011;11557;50.884;4.322;2023-10-19T01:17:55;3.90;;;0.50;;
22780;SDS011;11557;50.884;4.322;2023-10-19T01:20:23;3.10;;;0.40;;
22780;SDS011;11557;50.884;4.322;2023-10-19T01:22:56;5.38;;;1.10;;
22780;SDS011;11557;50.884;4.322;2023-10-19T01:28:15;4.75;;;0.57;;
22780;SDS011;11557;50.884;4.322;2023-10-19T01:30:44;3.97;;;1.23;;
22780;SDS011;11557;50.884;4.322;2023-10-19T01:33:11;4.03;;;0.65;;
22780;SDS011;11557;50.884;4.322;2023-10-19T01:35:44;3.13;;;0.57;;
22780;SDS011;11557;50.884;4.322;2023-10-19T01:38:29;4.65;;;0.70;;
22780;SDS011;11557;50.884;4.322;2023-10-19T01:41:02;4.75;;;0.90;;
22780;SDS011;11557;50.884;4.322;2023-10-19T01:43:38;3.95;;;0.88;;
22780;SDS011;11557;50.884;4.322;2023-10-19T01:46:05;3.90;;;1.15;;
22780;SDS011;11557;50.884;4.322;2023-10-19T01:48:38;5.80;;;1.20;;
22780;SDS011;11557;50.884;4.322;2023-10-19T01:51:05;6.45;;;1.80;;
22780;SDS011;11557;50.884;4.322;2023-10-19T01:53:35;6.15;;;1.73;;
22780;SDS011;11557;50.884;4.322;2023-10-19T01:56:02;7.13;;;1.83;;
22780;SDS011;11557;50.884;4.322;2023-10-19T01:58:31;8.95;;;2.00;;
22780;SDS011;11557;50.884;4.322;2023-10-19T02:01:01;5.55;;;1.88;;
22780;SDS011;11557;50.884;4.322;2023-10-19T02:03:33;6.13;;;2.03;;
22780;SDS011;11557;50.884;4.322;2023-10-19T02:06:00;10.48;;;2.95;;
22780;SDS011;11557;50.884;4.322;2023-10-19T02:08:52;6.93;;;2.63;;
22780;SDS011;11557;50.884;4.322;2023-10-19T02:11:26;8.13;;;2.78;;
22780;SDS011;11557;50.884;4.322;2023-10-19T02:13:56;8.52;;;2.60;;
22780;SDS011;11557;50.884;4.322;2023-10-19T02:16:29;9.15;;;2.00;;
22780;SDS011;11557;50.884;4.322;2023-10-19T02:18:55;4.85;;;1.80;;
22780;SDS011;11557;50.884;4.322;2023-10-19T02:21:21;7.85;;;2.10;;
22780;SDS011;11557;50.884;4.322;2023-10-19T02:23:55;6.85;;;2.25;;
22780;SDS011;11557;50.884;4.322;2023-10-19T02:26:24;6.13;;;1.83;;
22780;SDS011;11557;50.884;4.322;2023-10-19T02:28:53;5.97;;;1.63;;
22780;SDS011;11557;50.884;4.322;2023-10-19T02:31:21;4.45;;;1.45;;
22780;SDS011;11557;50.884;4.322;2023-10-19T02:33:52;6.47;;;1.73;;
22780;SDS011;11557;50.884;4.322;2023-10-19T02:36:24;7.70;;;1.52;;
22780;SDS011;11557;50.884;4.322;2023-10-19T02:38:57;10.60;;;1.52;;
22780;SDS011;11557;50.884;4.322;2023-10-19T02:41:24;10.55;;;1.80;;
22780;SDS011;11557;50.884;4.322;2023-10-19T02:43:52;4.70;;;1.15;;
22780;SDS011;11557;50.884;4.322;2023-10-19T02:46:33;12.25;;;2.05;;
22780;SDS011;11557;50.884;4.322;2023-10-19T02:49:00;7.55;;;1.77;;
22780;SDS011;11557;50.884;4.322;2023-10-19T02:51:28;13.30;;;2.05;;
22780;SDS011;11557;50.884;4.322;2023-10-19T02:53:54;6.20;;;1.25;;
22780;SDS011;11557;50.884;4.322;2023-10-19T02:56:20;7.28;;;2.03;;
22780;SDS011;11557;50.884;4.322;2023-10-19T02:58:48;7.45;;;2.45;;
22780;SDS011;11557;50.884;4.322;2023-10-19T03:01:18;7.70;;;2.10;;
22780;SDS011;11557;50.884;4.322;2023-10-19T03:03:50;11.20;;;1.48;;
22780;SDS011;11557;50.884;4.322;2023-10-19T03:06:22;6.20;;;1.75;;
22780;SDS011;11557;50.884;4.322;2023-10-19T03:08:48;7.13;;;1.90;;
22780;SDS011;11557;50.884;4.322;2023-10-19T03:11:26;5.30;;;1.75;;
22780;SDS011;11557;50.884;4.322;2023-10-19T03:13:53;6.25;;;1.48;;
22780;SDS011;11557;50.884;4.322;2023-10-19T03:16:19;6.47;;;1.75;;
22780;SDS011;11557;50.884;4.322;2023-10-19T03:18:46;8.43;;;1.95;;
22780;SDS011;11557;50.884;4.322;2023-10-19T03:21:12;7.07;;;1.80;;
22780;SDS011;11557;50.884;4.322;2023-10-19T03:23:38;7.10;;;1.90;;
22780;SDS011;11557;50.884;4.322;2023-10-19T03:26:06;5.57;;;1.98;;
22780;SDS011;11557;50.884;4.322;2023-10-19T03:28:50;9.25;;;1.98;;
22780;SDS011;11557;50.884;4.322;2023-10-19T03:31:39;14.27;;;2.22;;
22780;SDS011;11557;50.884;4.322;2023-10-19T03:34:12;6.47;;;1.98;;
22780;SDS011;11557;50.884;4.322;2023-10-19T03:36:41;13.07;;;2.80;;
22780;SDS011;11557;50.884;4.322;2023-10-19T03:39:08;6.38;;;2.13;;
22780;SDS011;11557;50.884;4.322;2023-10-19T03:41:38;7.38;;;2.17;;
22780;SDS011;11557;50.884;4.322;2023-10-19T03:44:07;8.48;;;2.20;;
22780;SDS011;11557;50.884;4.322;2023-10-19T03:47:00;8.88;;;2.28;;
22780;SDS011;11557;50.884;4.322;2023-10-19T03:49:29;6.47;;;1.70;;
22780;SDS011;11557;50.884;4.322;2023-10-19T03:52:05;7.65;;;1.80;;
22780;SDS011;11557;50.884;4.322;2023-10-19T03:54:31;8.43;;;2.20;;
22780;SDS011;11557;50.884;4.322;2023-10-19T03:56:58;12.57;;;2.13;;
22780;SDS011;11557;50.884;4.322;2023-10-19T03:59:27;10.07;;;1.98;;
22780;SDS011;11557;50.884;4.322;2023-10-19T04:01:56;9.18;;;2.15;;
22780;SDS011;11557;50.884;4.322;2023-10-19T04:04:24;9.98;;;2.28;;
22780;SDS011;11557;50.884;4.322;2023-10-19T04:06:50;7.63;;;1.60;;
22780;SDS011;11557;50.884;4.322;2023-10-19T04:09:22;10.00;;;1.77;;
22780;SDS011;11557;50.884;4.322;2023-10-19T04:11:53;7.93;;;1.40;;
22780;SDS011;11557;50.884;4.322;2023-10-19T04:14:22;11.68;;;1.83;;
22780;SDS011;11557;50.884;4.322;2023-10-19T04:16:48;7.55;;;1.80;;
22780;SDS011;11557;50.884;4.322;2023-10-19T04:19:14;4.65;;;1.35;;
22780;SDS011;11557;50.884;4.322;2023-10-19T04:21:41;6.45;;;1.38;;
22780;SDS011;11557;50.884;4.322;2023-10-19T04:24:11;8.15;;;1.67;;
22780;SDS011;11557;50.884;4.322;2023-10-19T04:26:37;6.75;;;1.58;;
22780;SDS011;11557;50.884;4.322;2023-10-19T04:29:03;10.32;;;1.75;;
22780;SDS011;11557;50.884;4.322;2023-10-19T04:31:36;8.38;;;1.85;;
22780;SDS011;11557;50.884;4.322;2023-10-19T04:34:03;6.93;;;1.83;;
22780;SDS011;11557;50.884;4.322;2023-10-19T04:36:32;8.90;;;1.90;;
22780;SDS011;11557;50.884;4.322;2023-10-19T04:38:59;8.85;;;2.53;;
22780;SDS011;11557;50.884;4.322;2023-10-19T04:41:25;8.13;;;1.75;;
22780;SDS011;11557;50.884;4.322;2023-10-19T04:43:53;8.05;;;1.77;;
22780;SDS011;11557;50.884;4.322;2023-10-19T04:46:20;12.02;;;2.08;;
22780;SDS011;11557;50.884;4.322;2023-10-19T04:48:46;9.15;;;1.60;;
22780;SDS011;11557;50.884;4.322;2023-10-19T04:51:12;5.10;;;1.20;;
22780;SDS011;11557;50.884;4.322;2023-10-19T04:53:37;7.85;;;1.65;;
22780;SDS011;11557;50.884;4.322;2023-10-19T04:56:04;8.40;;;1.50;;
22780;SDS011;11557;50.884;4.322;2023-10-19T04:58:37;11.10;;;1.70;;
22780;SDS011;11557;50.884;4.322;2023-10-19T05:01:03;13.02;;;2.17;;
22780;SDS011;11557;50.884;4.322;2023-10-19T05:03:30;15.68;;;2.17;;
22780;SDS011;11557;50.884;4.322;2023-10-19T05:05:56;9.88;;;2.20;;
22780;SDS011;11557;50.884;4.322;2023-10-19T05:08:22;13.32;;;1.65;;
22780;SDS011;11557;50.884;4.322;2023-10-19T05:10:52;10.85;;;1.77;;
22780;SDS011;11557;50.884;4.322;2023-10-19T05:13:19;8.32;;;1.77;;
22780;SDS011;11557;50.884;4.322;2023-10-19T05:15:46;10.88;;;3.75;;
22780;SDS011;11557;50.884;4.322;2023-10-19T05:18:12;10.10;;;2.85;;
22780;SDS011;11557;50.884;4.322;2023-10-19T05:20:38;6.93;;;1.48;;
22780;SDS011;11557;50.884;4.322;2023-10-19T05:23:06;9.50;;;1.65;;
22780;SDS011;11557;50.884;4.322;2023-10-19T05:25:33;5.07;;;1.20;;
22780;SDS011;11557;50.884;4.322;2023-10-19T05:28:01;11.85;;;2.13;;
22780;SDS011;11557;50.884;4.322;2023-10-19T05:30:28;11.30;;;2.00;;
22780;SDS011;11557;50.884;4.322;2023-10-19T05:32:55;10.00;;;1.90;;
22780;SDS011;11557;50.884;4.322;2023-10-19T05:35:21;11.55;;;1.98;;
22780;SDS011;11557;50.884;4.322;2023-10-19T05:37:48;7.15;;;1.77;;
22780;SDS011;11557;50.884;4.322;2023-10-19T05:40:14;5.20;;;1.60;;
22780;SDS011;11557;50.884;4.322;2023-10-19T05:42:41;10.63;;;2.13;;
22780;SDS011;11557;50.884;4.322;2023-10-19T05:45:06;12.63;;;2.17;;
22780;SDS011;11557;50.884;4.322;2023-10-19T05:47:33;16.65;;;3.25;;
22780;SDS011;11557;50.884;4.322;2023-10-19T05:49:58;11.55;;;2.58;;
22780;SDS011;11557;50.884;4.322;2023-10-19T05:52:24;15.57;;;2.30;;
22780;SDS011;11557;50.884;4.322;2023-10-19T05:54:49;6.70;;;1.95;;
22780;SDS011;11557;50.884;4.322;2023-10-19T05:57:15;7.53;;;2.08;;
22780;SDS011;11557;50.884;4.322;2023-10-19T05:59:41;15.48;;;2.47;;
22780;SDS011;11557;50.884;4.322;2023-10-19T06:02:07;9.57;;;1.92;;
22780;SDS011;11557;50.884;4.322;2023-10-19T06:04:33;10.00;;;1.85;;
22780;SDS011;11557;50.884;4.322;2023-10-19T06:06:59;8.30;;;2.22;;
22780;SDS011;11557;50.884;4.322;2023-10-19T06:09:24;14.10;;;2.30;;
22780;SDS011;11557;50.884;4.322;2023-10-19T06:11:57;8.73;;;2.38;;
22780;SDS011;11557;50.884;4.322;2023-10-19T06:14:23;8.77;;;1.73;;
22780;SDS011;11557;50.884;4.322;2023-10-19T06:16:48;14.43;;;2.10;;
22780;SDS011;11557;50.884;4.322;2023-10-19T06:19:15;10.10;;;2.20;;
22780;SDS011;11557;50.884;4.322;2023-10-19T06:21:41;12.20;;;2.22;;
22780;SDS011;11557;50.884;4.322;2023-10-19T06:24:07;14.07;;;2.40;;
22780;SDS011;11557;50.884;4.322;2023-10-19T06:26:33;10.35;;;1.40;;
22780;SDS011;11557;50.884;4.322;2023-10-19T06:28:58;11.50;;;2.03;;
22780;SDS011;11557;50.884;4.322;2023-10-19T06:31:24;10.70;;;2.60;;
22780;SDS011;11557;50.884;4.322;2023-10-19T06:33:51;11.02;;;1.98;;
22780;SDS011;11557;50.884;4.322;2023-10-19T06:36:17;12.13;;;2.28;;
22780;SDS011;11557;50.884;4.322;2023-10-19T06:38:44;11.02;;;1.55;;
22780;SDS011;11557;50.884;4.322;2023-10-19T06:41:13;14.95;;;1.90;;
22780;SDS011;11557;50.884;4.322;2023-10-19T06:43:40;6.75;;;1.52;;
22780;SDS011;11557;50.884;4.322;2023-10-19T06:46:06;14.43;;;2.15;;
22780;SDS011;11557;50.884;4.322;2023-10-19T06:48:33;11.00;;;1.67;;
22780;SDS011;11557;50.884;4.322;2023-10-19T06:50:58;8.50;;;1.83;;
22780;SDS011;11557;50.884;4.322;2023-10-19T06:53:25;7.28;;;1.42;;
22780;SDS011;11557;50.884;4.322;2023-10-19T06:55:51;9.38;;;1.83;;
22780;SDS011;11557;50.884;4.322;2023-10-19T06:58:16;18.05;;;3.03;;
22780;SDS011;11557;50.884;4.322;2023-10-19T07:00:45;8.55;;;1.40;;
22780;SDS011;11557;50.884;4.322;2023-10-19T07:03:21;13.27;;;2.25;;
22780;SDS011;11557;50.884;4.322;2023-10-19T07:05:46;11.68;;;1.85;;
22780;SDS011;11557;50.884;4.322;2023-10-19T07:08:12;18.42;;;2.00;;
22780;SDS011;11557;50.884;4.322;2023-10-19T07:10:38;15.55;;;2.40;;
22780;SDS011;11557;50.884;4.322;2023-10-19T07:13:03;14.10;;;2.85;;
22780;SDS011;11557;50.884;4.322;2023-10-19T07:15:29;17.15;;;2.58;;
22780;SDS011;11557;50.884;4.322;2023-10-19T07:17:55;11.05;;;2.20;;
22780;SDS011;11557;50.884;4.322;2023-10-19T07:20:22;10.30;;;1.58;;
22780;SDS011;11557;50.884;4.322;2023-10-19T07:22:57;12.00;;;2.33;;
22780;SDS011;11557;50.884;4.322;2023-10-19T07:25:46;8.32;;;1.55;;
22780;SDS011;11557;50.884;4.322;2023-10-19T07:28:19;16.23;;;2.40;;
22780;SDS011;11557;50.884;4.322;2023-10-19T07:30:46;7.75;;;1.70;;
22780;SDS011;11557;50.884;4.322;2023-10-19T07:33:12;18.63;;;2.15;;
22780;SDS011;11557;50.884;4.322;2023-10-19T07:35:48;7.07;;;1.63;;
22780;SDS011;11557;50.884;4.322;2023-10-19T07:38:23;10.35;;;2.20;;
22780;SDS011;11557;50.884;4.322;2023-10-19T07:40:50;13.50;;;2.20;;
22780;SDS011;11557;50.884;4.322;2023-10-19T07:43:19;12.73;;;2.20;;
22780;SDS011;11557;50.884;4.322;2023-10-19T07:45:45;12.52;;;1.55;;
22780;SDS011;11557;50.884;4.322;2023-10-19T07:48:13;9.80;;;1.70;;
22780;SDS011;11557;50.884;4.322;2023-10-19T07:50:40;13.02;;;2.42;;
22780;SDS011;11557;50.884;4.322;2023-10-19T07:53:05;14.95;;;2.00;;
22780;SDS011;11557;50.884;4.322;2023-10-19T07:55:32;14.70;;;1.80;;
22780;SDS011;11557;50.884;4.322;2023-10-19T07:57:58;9.35;;;1.88;;
22780;SDS011;11557;50.884;4.322;2023-10-19T08:00:28;11.82;;;2.10;;
22780;SDS011;11557;50.884;4.322;2023-10-19T08:02:59;17.98;;;2.30;;
22780;SDS011;11557;50.884;4.322;2023-10-19T08:05:24;12.65;;;2.15;;
22780;SDS011;11557;50.884;4.322;2023-10-19T08:07:51;10.60;;;2.05;;
22780;SDS011;11557;50.884;4.322;2023-10-19T08:10:18;19.45;;;2.58;;
22780;SDS011;11557;50.884;4.322;2023-10-19T08:12:44;7.65;;;1.58;;
22780;SDS011;11557;50.884;4.322;2023-10-19T08:15:14;13.23;;;2.15;;
22780;SDS011;11557;50.884;4.322;2023-10-19T08:17:41;14.43;;;2.25;;
22780;SDS011;11557;50.884;4.322;2023-10-19T08:20:09;12.15;;;2.67;;
22780;SDS011;11557;50.884;4.322;2023-10-19T08:22:57;12.90;;;2.40;;
22780;SDS011;11557;50.884;4.322;2023-10-19T08:25:24;10.27;;;2.13;;
22780;SDS011;11557;50.884;4.322;2023-10-19T08:27:53;9.57;;;2.00;;
22780;SDS011;11557;50.884;4.322;2023-10-19T08:30:22;12.13;;;1.77;;
22780;SDS011;11557;50.884;4.322;2023-10-19T08:32:48;8.50;;;1.75;;
22780;SDS011;11557;50.884;4.322;2023-10-19T08:35:17;9.68;;;2.00;;
22780;SDS011;11557;50.884;4.322;2023-10-19T08:37:49;12.75;;;2.30;;
22780;SDS011;11557;50.884;4.322;2023-10-19T08:40:15;14.07;;;2.30;;
22780;SDS011;11557;50.884;4.322;2023-10-19T08:42:43;15.18;;;2.55;;
22780;SDS011;11557;50.884;4.322;2023-10-19T08:45:10;12.20;;;2.20;;
22780;SDS011;11557;50.884;4.322;2023-10-19T08:47:47;9.23;;;2.10;;
22780;SDS011;11557;50.884;4.322;2023-10-19T08:50:21;10.98;;;2.15;;
22780;SDS011;11557;50.884;4.322;2023-10-19T08:52:49;10.07;;;1.60;;
22780;SDS011;11557;50.884;4.322;2023-10-19T08:55:17;14.68;;;2.00;;
22780;SDS011;11557;50.884;4.322;2023-10-19T08:57:44;9.65;;;1.88;;
22780;SDS011;11557;50.884;4.322;2023-10-19T09:00:10;15.30;;;2.08;;
22780;SDS011;11557;50.884;4.322;2023-10-19T09:02:36;14.75;;;2.47;;
22780;SDS011;11557;50.884;4.322;2023-10-19T09:05:05;13.23;;;2.45;;
22780;SDS011;11557;50.884;4.322;2023-10-19T09:07:31;12.75;;;2.03;;
22780;SDS011;11557;50.884;4.322;2023-10-19T09:09:59;11.13;;;2.50;;
22780;SDS011;11557;50.884;4.322;2023-10-19T09:12:26;12.65;;;2.85;;
22780;SDS011;11557;50.884;4.322;2023-10-19T09:14:52;14.23;;;2.47;;
22780;SDS011;11557;50.884;4.322;2023-10-19T09:17:27;11.30;;;1.80;;
22780;SDS011;11557;50.884;4.322;2023-10-19T09:19:57;12.48;;;3.00;;
22780;SDS011;11557;50.884;4.322;2023-10-19T09:22:24;14.75;;;2.28;;
22780;SDS011;11557;50.884;4.322;2023-10-19T09:24:51;16.00;;;3.08;;
22780;SDS011;11557;50.884;4.322;2023-10-19T09:27:20;6.28;;;1.90;;
22780;SDS011;11557;50.884;4.322;2023-10-19T09:29:49;15.43;;;2.03;;
22780;SDS011;11557;50.884;4.322;2023-10-19T09:32:18;14.45;;;2.47;;
22780;SDS011;11557;50.884;4.322;2023-10-19T09:34:44;10.15;;;2.33;;
22780;SDS011;11557;50.884;4.322;2023-10-19T09:37:12;15.68;;;2.53;;
22780;SDS011;11557;50.884;4.322;2023-10-19T09:39:41;13.48;;;2.08;;
22780;SDS011;11557;50.884;4.322;2023-10-19T09:42:09;14.43;;;2.45;;
22780;SDS011;11557;50.884;4.322;2023-10-19T09:44:44;13.80;;;2.40;;
22780;SDS011;11557;50.884;4.322;2023-10-19T09:47:34;11.40;;;2.22;;
22780;SDS011;11557;50.884;4.322;2023-10-19T09:50:04;21.48;;;2.45;;
22780;SDS011;11557;50.884;4.322;2023-10-19T09:52:34;14.23;;;2.25;;
22780;SDS011;11557;50.884;4.322;2023-10-19T09:57:56;11.05;;;2.10;;
22780;SDS011;11557;50.884;4.322;2023-10-19T10:00:32;10.77;;;1.90;;
22780;SDS011;11557;50.884;4.322;2023-10-19T10:02:59;10.25;;;2.22;;
22780;SDS011;11557;50.884;4.322;2023-10-19T10:10:46;11.13;;;1.77;;
22780;SDS011;11557;50.884;4.322;2023-10-19T10:15:53;11.45;;;2.20;;
22780;SDS011;11557;50.884;4.322;2023-10-19T10:18:23;13.30;;;2.67;;
22780;SDS011;11557;50.884;4.322;2023-10-19T10:23:45;16.17;;;2.60;;
22780;SDS011;11557;50.884;4.322;2023-10-19T10:26:21;10.70;;;2.15;;
22780;SDS011;11557;50.884;4.322;2023-10-19T10:29:10;6.97;;;2.10;;
22780;SDS011;11557;50.884;4.322;2023-10-19T10:31:45;10.35;;;1.98;;
22780;SDS011;11557;50.884;4.322;2023-10-19T10:37:06;12.07;;;1.98;;
22780;SDS011;11557;50.884;4.322;2023-10-19T10:39:33;9.98;;;2.33;;
22780;SDS011;11557;50.884;4.322;2023-10-19T10:42:03;25.33;;;2.63;;
22780;SDS011;11557;50.884;4.322;2023-10-19T10:47:09;6.30;;;1.70;;
22780;SDS011;11557;50.884;4.322;2023-10-19T10:52:25;19.25;;;2.40;;
22780;SDS011;11557;50.884;4.322;2023-10-19T10:54:59;10.27;;;1.95;;
22780;SDS011;11557;50.884;4.322;2023-10-19T10:57:33;12.43;;;1.73;;
22780;SDS011;11557;50.884;4.322;2023-10-19T11:02:58;14.38;;;2.17;;
22780;SDS011;11557;50.884;4.322;2023-10-19T11:05:29;12.30;;;2.55;;
22780;SDS011;11557;50.884;4.322;2023-10-19T11:10:32;7.97;;;1.90;;
22780;SDS011;11557;50.884;4.322;2023-10-19T11:13:09;12.10;;;2.03;;
22780;SDS011;11557;50.884;4.322;2023-10-19T11:15:36;13.02;;;2.38;;
22780;SDS011;11557;50.884;4.322;2023-10-19T11:18:03;10.68;;;2.40;;
22780;SDS011;11557;50.884;4.322;2023-10-19T11:20:29;11.25;;;2.22;;
22780;SDS011;11557;50.884;4.322;2023-10-19T11:22:57;12.18;;;2.33;;
22780;SDS011;11557;50.884;4.322;2023-10-19T11:25:26;13.07;;;2.20;;
22780;SDS011;11557;50.884;4.322;2023-10-19T11:27:53;13.95;;;2.58;;
22780;SDS011;11557;50.884;4.322;2023-10-19T11:30:27;12.02;;;2.05;;
22780;SDS011;11557;50.884;4.322;2023-10-19T11:32:54;12.52;;;2.42;;
22780;SDS011;11557;50.884;4.322;2023-10-19T11:35:28;10.63;;;2.40;;
22780;SDS011;11557;50.884;4.322;2023-10-19T11:37:56;12.35;;;3.00;;
22780;SDS011;11557;50.884;4.322;2023-10-19T11:40:24;7.50;;;2.20;;
22780;SDS011;11557;50.884;4.322;2023-10-19T11:42:53;6.53;;;1.83;;
22780;SDS011;11557;50.884;4.322;2023-10-19T11:45:25;8.07;;;1.90;;
22780;SDS011;11557;50.884;4.322;2023-10-19T11:47:51;9.80;;;2.78;;
22780;SDS011;11557;50.884;4.322;2023-10-19T11:50:18;13.35;;;2.00;;
22780;SDS011;11557;50.884;4.322;2023-10-19T11:52:44;7.35;;;1.58;;
22780;SDS011;11557;50.884;4.322;2023-10-19T11:55:14;9.00;;;1.83;;
22780;SDS011;11557;50.884;4.322;2023-10-19T11:57:40;11.05;;;2.05;;
22780;SDS011;11557;50.884;4.322;2023-10-19T12:00:09;8.10;;;1.70;;
22780;SDS011;11557;50.884;4.322;2023-10-19T12:02:39;9.65;;;1.77;;
22780;SDS011;11557;50.884;4.322;2023-10-19T12:05:06;3.50;;;1.42;;
22780;SDS011;11557;50.884;4.322;2023-10-19T12:07:38;8.25;;;2.22;;
22780;SDS011;11557;50.884;4.322;2023-10-19T12:10:08;5.95;;;2.10;;
22780;SDS011;11557;50.884;4.322;2023-10-19T12:12:36;5.22;;;1.98;;
22780;SDS011;11557;50.884;4.322;2023-10-19T12:15:02;10.88;;;2.67;;
22780;SDS011;11557;50.884;4.322;2023-10-19T12:17:30;7.45;;;2.70;;
22780;SDS011;11557;50.884;4.322;2023-10-19T12:19:59;10.05;;;2.60;;
22780;SDS011;11557;50.884;4.322;2023-10-19T12:22:25;6.45;;;2.17;;
22780;SDS011;11557;50.884;4.322;2023-10-19T12:24:57;4.53;;;1.77;;
22780;SDS011;11557;50.884;4.322;2023-10-19T12:27:24;4.68;;;1.38;;
22780;SDS011;11557;50.884;4.322;2023-10-19T12:29:50;3.15;;;1.40;;
22780;SDS011;11557;50.884;4.322;2023-10-19T12:32:17;3.80;;;1.35;;
22780;SDS011;11557;50.884;4.322;2023-10-19T12:34:43;5.38;;;1.48;;
22780;SDS011;11557;50.884;4.322;2023-10-19T12:37:10;8.27;;;1.67;;
22780;SDS011;11557;50.884;4.322;2023-10-19T12:39:37;5.25;;;1.33;;
22780;SDS011;11557;50.884;4.322;2023-10-19T12:42:14;5.88;;;1.67;;
22780;SDS011;11557;50.884;4.322;2023-10-19T12:44:40;3.03;;;1.13;;
22780;SDS011;11557;50.884;4.322;2023-10-19T12:47:08;3.47;;;1.10;;
22780;SDS011;11557;50.884;4.322;2023-10-19T12:49:38;4.47;;;1.60;;
22780;SDS011;11557;50.884;4.322;2023-10-19T12:52:05;3.80;;;1.00;;
22780;SDS011;11557;50.884;4.322;2023-10-19T12:54:35;3.80;;;1.05;;
22780;SDS011;11557;50.884;4.322;2023-10-19T12:57:02;5.18;;;1.42;;
22780;SDS011;11557;50.884;4.322;2023-10-19T12:59:37;4.32;;;0.90;;
22780;SDS011;11557;50.884;4.322;2023-10-19T13:02:03;3.97;;;1.00;;
22780;SDS011;11557;50.884;4.322;2023-10-19T13:04:33;3.85;;;0.90;;
22780;SDS011;11557;50.884;4.322;2023-10-19T13:06:59;1.65;;;0.75;;
22780;SDS011;11557;50.884;4.322;2023-10-19T13:09:27;6.95;;;1.45;;
22780;SDS011;11557;50.884;4.322;2023-10-19T13:11:59;4.20;;;1.15;;
22780;SDS011;11557;50.884;4.322;2023-10-19T13:14:25;2.50;;;0.80;;
22780;SDS011;11557;50.884;4.322;2023-10-19T13:16:52;3.03;;;1.15;;
22780;SDS011;11557;50.884;4.322;2023-10-19T13:19:19;2.28;;;0.70;;
22780;SDS011;11557;50.884;4.322;2023-10-19T13:21:51;3.05;;;0.60;;
22780;SDS011;11557;50.884;4.322;2023-10-19T13:24:17;4.60;;;1.00;;
22780;SDS011;11557;50.884;4.322;2023-10-19T13:26:45;2.08;;;0.70;;
22780;SDS011;11557;50.884;4.322;2023-10-19T13:29:12;7.00;;;1.10;;
22780;SDS011;11557;50.884;4.322;2023-10-19T13:31:40;3.45;;;1.02;;
22780;SDS011;11557;50.884;4.322;2023-10-19T13:34:06;3.10;;;0.95;;
22780;SDS011;11557;50.884;4.322;2023-10-19T13:36:35;3.92;;;0.90;;
22780;SDS011;11557;50.884;4.322;2023-10-19T13:39:02;4.18;;;0.93;;
22780;SDS011;11557;50.884;4.322;2023-10-19T13:41:28;4.78;;;1.00;;
22780;SDS011;11557;50.884;4.322;2023-10-19T13:43:54;4.60;;;0.70;;
22780;SDS011;11557;50.884;4.322;2023-10-19T13:46:20;2.80;;;0.90;;
22780;SDS011;11557;50.884;4.322;2023-10-19T13:48:48;4.20;;;0.70;;
22780;SDS011;11557;50.884;4.322;2023-10-19T13:51:17;2.55;;;0.80;;
22780;SDS011;11557;50.884;4.322;2023-10-19T13:53:45;3.70;;;1.10;;
22780;SDS011;11557;50.884;4.322;2023-10-19T13:56:12;4.43;;;1.02;;
22780;SDS011;11557;50.884;4.322;2023-10-19T13:58:39;3.05;;;1.10;;
22780;SDS011;11557;50.884;4.322;2023-10-19T14:01:09;2.53;;;0.75;;
22780;SDS011;11557;50.884;4.322;2023-10-19T14:03:36;2.92;;;0.88;;
22780;SDS011;11557;50.884;4.322;2023-10-19T14:06:03;1.27;;;0.80;;
22780;SDS011;11557;50.884;4.322;2023-10-19T14:08:28;4.63;;;1.10;;
22780;SDS011;11557;50.884;4.322;2023-10-19T14:11:04;3.42;;;0.90;;
22780;SDS011;11557;50.884;4.322;2023-10-19T14:13:31;4.32;;;1.42;;
22780;SDS011;11557;50.884;4.322;2023-10-19T14:15:57;1.60;;;0.80;;
22780;SDS011;11557;50.884;4.322;2023-10-19T14:18:23;2.33;;;0.60;;
22780;SDS011;11557;50.884;4.322;2023-10-19T14:20:48;2.45;;;0.80;;
22780;SDS011;11557;50.884;4.322;2023-10-19T14:23:14;5.75;;;0.90;;
22780;SDS011;11557;50.884;4.322;2023-10-19T14:25:39;3.38;;;0.85;;
22780;SDS011;11557;50.884;4.322;2023-10-19T14:28:07;4.63;;;0.90;;
22780;SDS011;11557;50.884;4.322;2023-10-19T14:30:32;4.25;;;0.80;;
22780;SDS011;11557;50.884;4.322;2023-10-19T14:32:58;2.33;;;0.82;;
22780;SDS011;11557;50.884;4.322;2023-10-19T14:35:24;4.20;;;0.98;;
22780;SDS011;11557;50.884;4.322;2023-10-19T14:37:53;4.25;;;0.90;;
22780;SDS011;11557;50.884;4.322;2023-10-19T14:40:21;3.60;;;1.15;;
22780;SDS011;11557;50.884;4.322;2023-10-19T14:42:51;4.28;;;1.10;;
22780;SDS011;11557;50.884;4.322;2023-10-19T14:45:23;2.35;;;0.80;;
22780;SDS011;11557;50.884;4.322;2023-10-19T14:47:57;1.85;;;0.70;;
22780;SDS011;11557;50.884;4.322;2023-10-19T14:50:24;3.30;;;0.98;;
22780;SDS011;11557;50.884;4.322;2023-10-19T14:52:51;2.38;;;0.85;;
22780;SDS011;11557;50.884;4.322;2023-10-19T14:55:18;4.13;;;0.85;;
22780;SDS011;11557;50.884;4.322;2023-10-19T14:57:45;7.68;;;1.20;;
22780;SDS011;11557;50.884;4.322;2023-10-19T15:00:16;2.42;;;0.70;;
22780;SDS011;11557;50.884;4.322;2023-10-19T15:03:06;3.05;;;0.88;;
22780;SDS011;11557;50.884;4.322;2023-10-19T15:05:33;4.72;;;0.82;;
22780;SDS011;11557;50.884;4.322;2023-10-19T15:08:00;1.08;;;0.60;;
22780;SDS011;11557;50.884;4.322;2023-10-19T15:10:27;4.38;;;0.88;;
22780;SDS011;11557;50.884;4.322;2023-10-19T15:12:56;2.75;;;1.20;;
22780;SDS011;11557;50.884;4.322;2023-10-19T15:15:24;4.07;;;1.00;;
22780;SDS011;11557;50.884;4.322;2023-10-19T15:17:53;3.70;;;1.10;;
22780;SDS011;11557;50.884;4.322;2023-10-19T15:20:20;4.95;;;0.80;;
22780;SDS011;11557;50.884;4.322;2023-10-19T15:22:50;5.13;;;0.77;;
22780;SDS011;11557;50.884;4.322;2023-10-19T15:25:16;1.50;;;0.60;;
22780;SDS011;11557;50.884;4.322;2023-10-19T15:27:46;1.63;;;0.95;;